DAUO/ELU METAR and TAF weather

Enter ICAO airport designator
Station Type Date Time Source
DAUO METAR 2019/07/17 18:00 UTC NOAA

DAUO 171800Z 20003KT 9999 FEW040 36/16 Q1010


Station Type Date Time Source
DAUO Decoded METAR 2019/07/17 18:00 UTC NOAA

El Oued, Algeria (DAUO) 33-30N 006-07E 63M
Jul 17, 2019 - 02:00 PM EDT / 2019.07.17 1800 UTC
Wind: from the SSW (200 degrees) at 3 MPH (3 KT):0
Visibility: greater than 7 mile(s):0
Sky conditions: mostly clear
Temperature: 96 F (36 C)
Heat index: 95.9 F (35.5 C):1
Dew Point: 60 F (16 C)
Relative Humidity: 30%
Pressure (altimeter): 29.83 in. Hg (1010 hPa)
ob: DAUO 171800Z 20003KT 9999 FEW040 36/16 Q1010
cycle: 18

Station Type Date Time Source
DAUO TAF 2017/11/09 18:03 UTC NOAA

TAF DAUO 091700Z 0918/1009 28010KT 9999 SCT033 SCT100 PROB30
TEMPO 0918/0924 28015G25KT 5000 -TSRA FEW036CB

Example: see airport list